createdAt,value
2023-12-30T00:00:29.125Z,24.55
2023-12-30T00:02:56.023Z,25.90
2023-12-30T00:05:25.360Z,24.55
2023-12-30T00:07:52.233Z,26.02
2023-12-30T00:10:19.177Z,22.42
2023-12-30T00:15:13.154Z,20.38
2023-12-30T00:17:40.070Z,20.70
2023-12-30T00:20:07.723Z,20.20
2023-12-30T00:22:34.579Z,20.25
2023-12-30T00:25:01.424Z,19.63
2023-12-30T00:27:28.234Z,19.45
2023-12-30T00:29:55.076Z,17.35
2023-12-30T00:32:21.932Z,16.27
2023-12-30T00:34:48.745Z,16.77
2023-12-30T00:37:20.303Z,17.85
2023-12-30T00:39:48.304Z,16.55
2023-12-30T00:42:15.176Z,17.02
2023-12-30T00:44:42.093Z,17.15
2023-12-30T00:47:08.900Z,17.08
2023-12-30T00:49:35.752Z,18.17
2023-12-30T00:52:02.813Z,20.08
2023-12-30T00:54:35.345Z,20.02
2023-12-30T00:57:07.655Z,18.83
2023-12-30T00:59:35.053Z,19.58
2023-12-30T01:02:01.994Z,23.02
2023-12-30T01:06:55.821Z,24.75
2023-12-30T01:11:49.469Z,24.02
2023-12-30T01:14:16.300Z,24.25
2023-12-30T01:16:43.081Z,25.13
2023-12-30T01:19:10.002Z,25.77
2023-12-30T01:21:36.796Z,25.83
2023-12-30T01:24:03.742Z,26.48
2023-12-30T01:26:30.583Z,26.25
2023-12-30T01:28:57.372Z,26.20
2023-12-30T01:31:24.376Z,26.63
2023-12-30T01:36:18.293Z,25.90
2023-12-30T01:41:11.931Z,26.02
2023-12-30T01:43:39.223Z,27.45
2023-12-30T01:46:08.569Z,27.15
2023-12-30T01:48:36.312Z,27.23
2023-12-30T01:51:04.188Z,25.52
2023-12-30T01:53:39.366Z,26.50
2023-12-30T01:56:07.158Z,31.10
2023-12-30T01:58:35.558Z,29.67
2023-12-30T02:01:05.158Z,29.05
2023-12-30T02:03:32.139Z,29.77
2023-12-30T02:05:59.550Z,29.65
2023-12-30T02:08:27.422Z,28.65
2023-12-30T02:10:54.373Z,31.67
2023-12-30T02:13:21.279Z,29.58
2023-12-30T02:15:48.123Z,27.50
2023-12-30T02:18:15.021Z,27.70
2023-12-30T02:20:41.889Z,27.85
2023-12-30T02:23:08.725Z,26.98
2023-12-30T02:25:36.060Z,27.02
2023-12-30T02:28:03.073Z,27.63
2023-12-30T02:32:58.857Z,26.17
2023-12-30T02:35:26.107Z,25.70
2023-12-30T02:37:53.088Z,25.48
2023-12-30T02:42:46.963Z,24.70
2023-12-30T02:45:13.971Z,22.75
2023-12-30T02:47:41.002Z,22.02
2023-12-30T02:50:08.547Z,22.45
2023-12-30T02:52:35.654Z,22.92
2023-12-30T02:55:04.407Z,20.98
2023-12-30T02:57:31.303Z,20.88
2023-12-30T02:59:58.416Z,28.27
2023-12-30T03:02:25.263Z,26.85
2023-12-30T03:04:53.296Z,28.55
2023-12-30T03:07:20.420Z,28.17
2023-12-30T03:12:16.081Z,28.23
2023-12-30T03:14:43.019Z,28.83
2023-12-30T03:17:09.877Z,29.05
2023-12-30T03:19:36.821Z,28.90
2023-12-30T03:22:03.846Z,29.13
2023-12-30T03:26:57.433Z,28.23
2023-12-30T03:29:24.255Z,28.92
2023-12-30T03:31:53.159Z,27.35
2023-12-30T03:34:20.560Z,29.85
2023-12-30T03:36:47.975Z,29.10
2023-12-30T03:39:15.283Z,28.67
2023-12-30T03:41:42.083Z,24.58
2023-12-30T03:44:08.907Z,22.23
2023-12-30T03:46:35.774Z,21.77
2023-12-30T03:49:02.854Z,21.02
2023-12-30T03:51:29.826Z,21.52
2023-12-30T03:53:56.759Z,22.38
2023-12-30T03:56:23.604Z,20.92
2023-12-30T03:58:50.397Z,20.40
2023-12-30T04:01:17.403Z,20.67
2023-12-30T04:03:44.245Z,20.15
2023-12-30T04:06:19.526Z,21.00
2023-12-30T04:08:46.391Z,21.38
2023-12-30T04:11:13.697Z,20.80
2023-12-30T04:13:40.778Z,22.00
2023-12-30T04:16:08.945Z,21.40
2023-12-30T04:18:35.760Z,19.83
2023-12-30T04:21:02.602Z,22.38
2023-12-30T04:23:29.491Z,21.27
2023-12-30T04:25:56.370Z,21.20
2023-12-30T04:28:23.246Z,22.15
2023-12-30T04:30:50.177Z,21.15
2023-12-30T04:33:17.194Z,21.60
2023-12-30T04:35:44.222Z,22.45
2023-12-30T04:38:11.272Z,22.58
2023-12-30T04:43:05.427Z,22.00
2023-12-30T04:45:32.442Z,22.13
2023-12-30T04:47:59.445Z,21.55
2023-12-30T04:52:53.580Z,21.58
2023-12-30T04:55:20.484Z,21.08
2023-12-30T04:57:49.038Z,22.50
2023-12-30T05:00:19.880Z,22.33
2023-12-30T05:02:47.724Z,21.38
2023-12-30T05:05:14.709Z,21.48
2023-12-30T05:07:41.647Z,21.45
2023-12-30T05:10:11.179Z,21.20
2023-12-30T05:12:38.600Z,22.30
2023-12-30T05:15:06.070Z,22.63
2023-12-30T05:17:33.822Z,21.50
2023-12-30T05:20:00.896Z,22.67
2023-12-30T05:22:27.967Z,22.33
2023-12-30T05:27:22.330Z,21.40
2023-12-30T05:29:49.280Z,21.13
2023-12-30T05:32:16.173Z,20.75
2023-12-30T05:34:43.073Z,20.15
2023-12-30T05:37:09.985Z,20.73
2023-12-30T05:39:37.063Z,21.60
2023-12-30T05:44:31.018Z,19.92
2023-12-30T05:46:57.821Z,20.83
2023-12-30T05:49:24.810Z,20.48
2023-12-30T05:54:18.686Z,20.27
2023-12-30T05:56:45.623Z,20.48
2023-12-30T05:59:12.433Z,19.30
2023-12-30T06:01:46.861Z,20.83
2023-12-30T06:04:15.409Z,20.50
2023-12-30T06:06:44.044Z,20.83
2023-12-30T06:09:11.003Z,20.83
2023-12-30T06:11:37.895Z,20.60
2023-12-30T06:14:05.088Z,20.08
2023-12-30T06:16:32.061Z,19.15
2023-12-30T06:21:25.961Z,19.98
2023-12-30T06:23:52.770Z,19.15
2023-12-30T06:26:19.637Z,20.00
2023-12-30T06:28:46.662Z,21.88
2023-12-30T06:33:41.376Z,19.45
2023-12-30T06:36:08.802Z,19.92
2023-12-30T06:38:36.714Z,20.63
2023-12-30T06:41:07.638Z,20.05
2023-12-30T06:43:34.485Z,20.23
2023-12-30T06:46:05.202Z,22.15
2023-12-30T06:48:32.315Z,19.92
2023-12-30T06:53:31.821Z,19.95
2023-12-30T06:56:05.352Z,22.13
2023-12-30T06:58:32.237Z,24.80
2023-12-30T07:00:59.165Z,21.52
2023-12-30T07:05:53.011Z,20.40
2023-12-30T07:10:46.606Z,20.05
2023-12-30T07:13:14.011Z,19.85
2023-12-30T07:15:40.862Z,18.92
2023-12-30T07:18:08.121Z,21.02
2023-12-30T07:20:36.819Z,21.35
2023-12-30T07:23:05.807Z,21.83
2023-12-30T07:25:33.368Z,20.00
2023-12-30T07:28:00.469Z,19.90
2023-12-30T07:32:54.392Z,18.25
2023-12-30T07:37:48.569Z,19.77
2023-12-30T07:40:16.088Z,20.40
2023-12-30T07:42:43.036Z,22.05
2023-12-30T07:45:10.269Z,19.58
2023-12-30T07:47:37.825Z,21.73
2023-12-30T07:50:06.338Z,19.95
2023-12-30T07:52:33.567Z,22.25
2023-12-30T07:55:00.510Z,20.13
2023-12-30T07:57:28.008Z,20.58
2023-12-30T07:59:56.497Z,20.63
2023-12-30T08:02:23.409Z,19.80
2023-12-30T08:04:50.383Z,20.25
2023-12-30T08:09:44.902Z,20.10
2023-12-30T08:12:12.796Z,20.52
2023-12-30T08:14:39.639Z,20.15
2023-12-30T08:17:06.544Z,21.45
2023-12-30T08:19:33.394Z,21.40
2023-12-30T08:22:00.411Z,20.92
2023-12-30T08:26:56.713Z,20.17
2023-12-30T08:29:23.561Z,21.15
2023-12-30T08:31:50.760Z,22.15
2023-12-30T08:34:17.779Z,21.80
2023-12-30T08:39:12.184Z,21.30
2023-12-30T08:41:42.277Z,21.08
2023-12-30T08:44:09.401Z,21.73
2023-12-30T08:46:36.929Z,20.73
2023-12-30T08:49:06.488Z,22.92
2023-12-30T08:51:35.766Z,22.83
2023-12-30T08:54:03.022Z,23.42
2023-12-30T08:56:34.801Z,22.42
2023-12-30T08:59:02.216Z,22.50
2023-12-30T09:01:29.468Z,22.52
2023-12-30T09:03:56.767Z,23.80
2023-12-30T09:06:23.841Z,25.23
2023-12-30T09:08:50.877Z,25.55
2023-12-30T09:11:21.737Z,25.63
2023-12-30T09:13:52.988Z,28.38
2023-12-30T09:16:20.489Z,28.38
2023-12-30T09:18:47.715Z,28.17
2023-12-30T09:21:14.773Z,27.52
2023-12-30T09:26:09.319Z,25.45
2023-12-30T09:28:36.450Z,25.30
2023-12-30T09:31:03.696Z,24.80
2023-12-30T09:33:31.560Z,25.13
2023-12-30T09:35:58.874Z,25.70
2023-12-30T09:38:26.902Z,25.80
2023-12-30T09:40:55.778Z,26.15
2023-12-30T09:43:28.011Z,24.85
2023-12-30T09:45:56.668Z,25.83
2023-12-30T09:48:27.606Z,28.15
2023-12-30T09:50:55.618Z,26.90
2023-12-30T09:53:26.069Z,28.75
2023-12-30T09:55:54.484Z,26.75
2023-12-30T09:58:22.715Z,28.75
2023-12-30T10:00:50.072Z,28.05
2023-12-30T10:03:17.344Z,27.15
2023-12-30T10:05:44.495Z,28.27
2023-12-30T10:08:11.661Z,31.38
2023-12-30T10:10:45.810Z,29.98
2023-12-30T10:13:14.301Z,29.58
2023-12-30T10:15:42.493Z,32.47
2023-12-30T10:18:09.789Z,30.40
2023-12-30T10:20:42.395Z,29.75
2023-12-30T10:23:09.501Z,31.23
2023-12-30T10:25:36.882Z,31.08
2023-12-30T10:28:04.521Z,30.27
2023-12-30T10:30:32.218Z,30.98
2023-12-30T10:33:14.767Z,31.98
2023-12-30T10:35:45.756Z,31.70
2023-12-30T10:38:14.549Z,30.73
2023-12-30T10:40:42.334Z,31.80
2023-12-30T10:43:10.462Z,30.05
2023-12-30T10:45:38.539Z,32.40
2023-12-30T10:48:07.985Z,31.50
2023-12-30T10:50:40.164Z,32.17
2023-12-30T10:53:16.145Z,32.42
2023-12-30T10:55:51.846Z,32.20
2023-12-30T10:58:23.758Z,31.13
2023-12-30T11:00:57.312Z,31.63
2023-12-30T11:03:25.912Z,32.53
2023-12-30T11:06:16.300Z,32.72
2023-12-30T11:08:45.299Z,29.38
2023-12-30T11:11:15.701Z,30.50
2023-12-30T11:13:43.355Z,32.10
2023-12-30T11:16:14.967Z,30.65
2023-12-30T11:18:50.840Z,34.55
2023-12-30T11:21:51.989Z,34.03
2023-12-30T11:24:19.474Z,30.42
2023-12-30T11:26:47.666Z,30.77
2023-12-30T11:29:18.339Z,31.45
2023-12-30T11:31:47.281Z,29.73
2023-12-30T11:34:16.756Z,30.98
2023-12-30T11:36:44.851Z,30.73
2023-12-30T11:39:16.033Z,30.00
2023-12-30T11:41:42.829Z,28.45
2023-12-30T11:44:09.724Z,28.08
2023-12-30T11:46:37.413Z,27.30
2023-12-30T11:49:04.717Z,28.23
2023-12-30T11:51:33.062Z,30.33
2023-12-30T11:54:05.842Z,28.80
2023-12-30T11:56:33.813Z,29.83
2023-12-30T11:59:01.786Z,28.40
2023-12-30T12:01:28.816Z,30.55
2023-12-30T12:03:56.225Z,29.67
2023-12-30T12:06:23.250Z,29.45
2023-12-30T12:11:17.520Z,30.63
2023-12-30T12:13:44.544Z,29.80
2023-12-30T12:16:12.237Z,30.17
2023-12-30T12:18:39.174Z,30.70
2023-12-30T12:23:40.926Z,29.25
2023-12-30T12:26:08.247Z,28.73
2023-12-30T12:28:35.319Z,30.33
2023-12-30T12:31:03.466Z,31.88
2023-12-30T12:33:30.965Z,28.70
2023-12-30T12:35:58.244Z,26.63
2023-12-30T12:38:25.405Z,25.70
2023-12-30T12:40:52.575Z,27.20
2023-12-30T12:43:19.833Z,28.80
2023-12-30T12:45:46.841Z,28.10
2023-12-30T12:50:41.489Z,27.25
2023-12-30T12:55:35.393Z,27.67
2023-12-30T13:00:31.414Z,27.63
2023-12-30T13:03:00.404Z,29.98
2023-12-30T13:05:28.036Z,30.42
2023-12-30T13:10:21.823Z,30.83
2023-12-30T13:12:50.415Z,28.20
2023-12-30T13:15:19.114Z,30.98
2023-12-30T13:17:46.036Z,28.10
2023-12-30T13:20:13.524Z,28.30
2023-12-30T13:22:40.414Z,28.55
2023-12-30T13:27:38.030Z,27.75
2023-12-30T13:32:32.586Z,28.92
2023-12-30T13:35:00.030Z,29.00
2023-12-30T13:37:26.942Z,27.70
2023-12-30T13:42:25.281Z,26.75
2023-12-30T13:44:53.157Z,27.63
2023-12-30T13:47:25.798Z,26.60
2023-12-30T13:50:19.564Z,26.33
2023-12-30T13:52:48.406Z,28.83
2023-12-30T13:55:18.056Z,27.00
2023-12-30T13:57:46.173Z,28.13
2023-12-30T14:00:15.497Z,26.95
2023-12-30T14:02:44.668Z,28.52
2023-12-30T14:05:19.996Z,31.17
2023-12-30T14:07:47.239Z,27.45
2023-12-30T14:10:19.415Z,29.20
2023-12-30T14:12:47.129Z,28.33
2023-12-30T14:15:14.882Z,29.25
2023-12-30T14:17:44.071Z,28.95
2023-12-30T14:20:11.901Z,29.67
2023-12-30T14:22:39.128Z,29.70
2023-12-30T14:25:06.402Z,29.95
2023-12-30T14:27:37.009Z,30.35
2023-12-30T14:30:07.476Z,30.95
2023-12-30T14:32:35.138Z,30.02
2023-12-30T14:35:02.794Z,29.63
2023-12-30T14:37:30.314Z,28.05
2023-12-30T14:39:57.416Z,27.90
2023-12-30T14:42:25.544Z,27.63
2023-12-30T14:44:52.849Z,27.73
2023-12-30T14:47:20.859Z,28.42
2023-12-30T14:49:47.886Z,32.25
2023-12-30T14:52:15.007Z,29.58
2023-12-30T14:57:09.267Z,31.25
2023-12-30T15:02:03.703Z,29.25
2023-12-30T15:04:30.607Z,28.83
2023-12-30T15:09:24.346Z,27.55
2023-12-30T15:14:18.368Z,27.75
2023-12-30T15:16:45.353Z,28.45
2023-12-30T15:19:12.622Z,28.75
2023-12-30T15:21:42.060Z,31.55
2023-12-30T15:24:08.905Z,27.58
2023-12-30T15:26:35.762Z,29.13
2023-12-30T15:31:30.314Z,28.50
2023-12-30T15:33:57.318Z,29.73
2023-12-30T15:36:24.356Z,32.50
2023-12-30T15:38:51.334Z,31.13
2023-12-30T15:41:22.214Z,32.53
2023-12-30T15:43:49.316Z,32.90
2023-12-30T15:46:16.213Z,29.48
2023-12-30T15:51:09.922Z,31.45
2023-12-30T15:53:38.078Z,29.40
2023-12-30T15:56:05.791Z,30.13
2023-12-30T15:58:33.066Z,33.33
2023-12-30T16:01:00.179Z,31.25
2023-12-30T16:03:27.331Z,30.25
2023-12-30T16:05:54.625Z,31.17
2023-12-30T16:08:21.885Z,31.52
2023-12-30T16:10:51.015Z,31.15
2023-12-30T16:13:19.578Z,31.00
2023-12-30T16:15:51.034Z,32.45
2023-12-30T16:18:20.841Z,31.60
2023-12-30T16:20:47.778Z,31.92
2023-12-30T16:25:42.660Z,30.88
2023-12-30T16:30:39.361Z,30.75
2023-12-30T16:33:06.783Z,32.40
2023-12-30T16:35:33.884Z,32.40
2023-12-30T16:38:00.821Z,30.77
2023-12-30T16:42:56.034Z,31.52
2023-12-30T16:45:22.910Z,32.28
2023-12-30T16:50:16.739Z,31.65
2023-12-30T16:55:12.483Z,30.83
2023-12-30T16:57:39.633Z,31.38
2023-12-30T17:00:10.319Z,32.38
2023-12-30T17:02:38.063Z,31.80
2023-12-30T17:05:06.473Z,32.05
2023-12-30T17:07:38.684Z,32.38
2023-12-30T17:10:11.135Z,32.13
2023-12-30T17:12:38.200Z,32.03
2023-12-30T17:15:05.611Z,31.52
2023-12-30T17:17:32.942Z,32.50
2023-12-30T17:19:59.823Z,32.70
2023-12-30T17:22:27.380Z,32.05
2023-12-30T17:24:54.221Z,33.17
2023-12-30T17:27:21.160Z,32.38
2023-12-30T17:32:16.765Z,30.77
2023-12-30T17:34:44.899Z,31.38
2023-12-30T17:37:11.993Z,32.22
2023-12-30T17:39:39.020Z,30.23
2023-12-30T17:44:33.693Z,30.15
2023-12-30T17:47:00.613Z,32.90
2023-12-30T17:51:56.714Z,36.92
2023-12-30T17:54:28.019Z,34.17
2023-12-30T17:56:54.943Z,34.75
2023-12-30T17:59:21.824Z,36.55
2023-12-30T18:01:50.004Z,33.97
2023-12-30T18:04:16.985Z,35.80
2023-12-30T18:09:12.336Z,32.97
2023-12-30T18:11:39.141Z,33.00
2023-12-30T18:14:09.999Z,33.25
2023-12-30T18:16:36.971Z,32.65
2023-12-30T18:19:04.171Z,34.22
2023-12-30T18:21:31.302Z,32.92
2023-12-30T18:26:26.510Z,31.27
2023-12-30T18:28:55.586Z,33.00
2023-12-30T18:31:22.523Z,33.40
2023-12-30T18:33:49.885Z,35.25
2023-12-30T18:36:16.940Z,34.60
2023-12-30T18:38:43.857Z,36.60
2023-12-30T18:43:44.560Z,32.60
2023-12-30T18:46:11.599Z,33.05
2023-12-30T18:51:13.599Z,30.63
2023-12-30T18:53:40.625Z,33.33
2023-12-30T18:56:15.896Z,32.70
2023-12-30T18:58:52.471Z,32.30
2023-12-30T19:01:19.805Z,32.85
2023-12-30T19:03:46.870Z,34.97
2023-12-30T19:08:45.142Z,32.58
2023-12-30T19:13:39.430Z,33.60
2023-12-30T19:16:06.447Z,33.58
2023-12-30T19:21:00.410Z,35.05
2023-12-30T19:25:54.273Z,34.53
2023-12-30T19:30:48.157Z,35.22
2023-12-30T19:35:44.429Z,35.00
2023-12-30T19:38:11.798Z,33.70
2023-12-30T19:40:46.094Z,35.17
2023-12-30T19:43:14.625Z,35.47
2023-12-30T19:45:43.520Z,35.30
2023-12-30T19:48:10.429Z,34.60
2023-12-30T19:53:05.418Z,33.65
2023-12-30T19:55:33.111Z,35.20
2023-12-30T19:58:00.001Z,36.72
2023-12-30T20:00:27.569Z,35.55
2023-12-30T20:02:54.890Z,34.88
2023-12-30T20:05:24.964Z,37.42
2023-12-30T20:07:51.902Z,35.53
2023-12-30T20:10:20.714Z,35.15
2023-12-30T20:12:50.702Z,34.80
2023-12-30T20:15:25.849Z,34.75
2023-12-30T20:17:52.809Z,36.22
2023-12-30T20:20:19.771Z,37.22
2023-12-30T20:25:14.576Z,35.30
2023-12-30T20:30:13.304Z,34.00
2023-12-30T20:32:41.272Z,35.88
2023-12-30T20:35:08.376Z,34.67
2023-12-30T20:37:35.226Z,34.00
2023-12-30T20:40:02.158Z,34.25
2023-12-30T20:42:30.371Z,34.92
2023-12-30T20:44:57.518Z,36.85
2023-12-30T20:49:51.518Z,33.42
2023-12-30T20:52:21.197Z,34.28
2023-12-30T20:54:48.190Z,36.38
2023-12-30T20:59:43.785Z,35.22
2023-12-30T21:02:10.682Z,36.42
2023-12-30T21:04:38.729Z,35.53
2023-12-30T21:07:05.795Z,35.13
2023-12-30T21:12:06.554Z,36.50
2023-12-30T21:14:34.280Z,36.20
2023-12-30T21:17:02.552Z,35.42
2023-12-30T21:19:32.625Z,35.22
2023-12-30T21:21:59.871Z,36.05
2023-12-30T21:24:26.889Z,33.90
2023-12-30T21:26:54.098Z,34.80
2023-12-30T21:29:22.900Z,35.75
2023-12-30T21:31:51.420Z,35.72
2023-12-30T21:34:18.684Z,38.17
2023-12-30T21:36:46.112Z,38.28
2023-12-30T21:39:13.838Z,39.95
2023-12-30T21:41:40.925Z,39.25
2023-12-30T21:46:42.808Z,37.08
2023-12-30T21:49:09.930Z,38.55
2023-12-30T21:51:37.917Z,40.30
2023-12-30T21:54:04.791Z,39.03
2023-12-30T21:58:58.725Z,38.50
2023-12-30T22:01:25.680Z,39.42
2023-12-30T22:06:19.336Z,40.63
2023-12-30T22:08:46.178Z,41.63
2023-12-30T22:11:13.075Z,42.08
2023-12-30T22:13:39.913Z,39.70
2023-12-30T22:16:06.987Z,39.05
2023-12-30T22:18:35.304Z,37.15
2023-12-30T22:21:02.182Z,39.90
2023-12-30T22:23:29.132Z,39.75
2023-12-30T22:28:22.708Z,38.85
2023-12-30T22:30:49.726Z,41.17
2023-12-30T22:35:43.546Z,37.83
2023-12-30T22:38:10.355Z,39.47
2023-12-30T22:40:37.233Z,37.58
2023-12-30T22:43:04.542Z,39.17
2023-12-30T22:45:31.749Z,41.55
2023-12-30T22:47:58.589Z,39.35
2023-12-30T22:50:25.479Z,38.75
2023-12-30T22:52:52.344Z,38.80
2023-12-30T22:55:19.255Z,36.97
2023-12-30T22:57:46.219Z,44.65
2023-12-30T23:00:15.098Z,39.35
2023-12-30T23:02:41.933Z,36.95
2023-12-30T23:05:09.880Z,38.35
2023-12-30T23:07:36.946Z,37.42
2023-12-30T23:12:30.703Z,34.97
2023-12-30T23:14:57.499Z,36.10
2023-12-30T23:17:25.637Z,36.97
2023-12-30T23:19:52.596Z,36.17
2023-12-30T23:22:19.490Z,36.10
2023-12-30T23:24:47.037Z,36.83
2023-12-30T23:27:14.345Z,37.00
2023-12-30T23:29:41.259Z,36.60
2023-12-30T23:32:08.423Z,37.55
2023-12-30T23:34:42.921Z,37.25
2023-12-30T23:37:15.883Z,37.40
2023-12-30T23:39:45.615Z,38.65
2023-12-30T23:42:13.072Z,36.30
2023-12-30T23:47:06.953Z,33.92
2023-12-30T23:49:33.816Z,36.92
2023-12-30T23:52:00.770Z,35.20
2023-12-30T23:54:27.632Z,35.35
2023-12-30T23:56:54.493Z,36.13
2023-12-30T23:59:21.485Z,36.08
